sensor_id;sensor_type;location;lat;lon;timestamp;pressure;altitude;pressure_sealevel;temperature;humidity
11085;BME280;5596;46.826;8.650;2022-12-20T00:00:33;96954.25;;;1.67;100.00
11085;BME280;5596;46.826;8.650;2022-12-20T00:03:00;96957.41;;;1.70;100.00
11085;BME280;5596;46.826;8.650;2022-12-20T00:05:27;96949.09;;;1.73;100.00
11085;BME280;5596;46.826;8.650;2022-12-20T00:07:54;96961.75;;;1.79;100.00
11085;BME280;5596;46.826;8.650;2022-12-20T00:10:22;96941.94;;;1.74;100.00
11085;BME280;5596;46.826;8.650;2022-12-20T00:12:49;96936.97;;;1.79;100.00
11085;BME280;5596;46.826;8.650;2022-12-20T00:15:16;96942.69;;;1.92;100.00
11085;BME280;5596;46.826;8.650;2022-12-20T00:17:46;96951.19;;;1.96;100.00
11085;BME280;5596;46.826;8.650;2022-12-20T00:20:13;96954.66;;;1.96;100.00
11085;BME280;5596;46.826;8.650;2022-12-20T00:22:41;96954.63;;;1.88;100.00
11085;BME280;5596;46.826;8.650;2022-12-20T00:25:08;96963.97;;;1.92;100.00
11085;BME280;5596;46.826;8.650;2022-12-20T00:27:36;96968.63;;;1.90;100.00
11085;BME280;5596;46.826;8.650;2022-12-20T00:30:03;96954.13;;;1.76;100.00
11085;BME280;5596;46.826;8.650;2022-12-20T00:32:31;96956.94;;;1.75;100.00
11085;BME280;5596;46.826;8.650;2022-12-20T00:35:00;96944.28;;;1.69;100.00
11085;BME280;5596;46.826;8.650;2022-12-20T00:37:27;96974.59;;;1.76;100.00
11085;BME280;5596;46.826;8.650;2022-12-20T00:39:54;96967.03;;;1.63;100.00
11085;BME280;5596;46.826;8.650;2022-12-20T00:42:22;96980.19;;;1.65;100.00
11085;BME280;5596;46.826;8.650;2022-12-20T00:44:49;96988.53;;;1.70;100.00
11085;BME280;5596;46.826;8.650;2022-12-20T00:47:16;96982.84;;;1.65;100.00
11085;BME280;5596;46.826;8.650;2022-12-20T00:49:43;96986.31;;;1.57;100.00
11085;BME280;5596;46.826;8.650;2022-12-20T00:52:12;96984.44;;;1.49;100.00
11085;BME280;5596;46.826;8.650;2022-12-20T00:54:40;96994.53;;;1.46;100.00
11085;BME280;5596;46.826;8.650;2022-12-20T00:57:07;96992.53;;;1.40;100.00
11085;BME280;5596;46.826;8.650;2022-12-20T00:59:34;97003.84;;;1.42;100.00
11085;BME280;5596;46.826;8.650;2022-12-20T01:02:01;96984.97;;;1.27;100.00
11085;BME280;5596;46.826;8.650;2022-12-20T01:04:28;96997.66;;;1.33;100.00
11085;BME280;5596;46.826;8.650;2022-12-20T01:06:56;97001.66;;;1.37;100.00
11085;BME280;5596;46.826;8.650;2022-12-20T01:09:25;97012.63;;;1.34;100.00
11085;BME280;5596;46.826;8.650;2022-12-20T01:11:52;96999.31;;;1.34;100.00
11085;BME280;5596;46.826;8.650;2022-12-20T01:14:19;97011.94;;;1.32;100.00
11085;BME280;5596;46.826;8.650;2022-12-20T01:16:46;97004.91;;;1.23;100.00
11085;BME280;5596;46.826;8.650;2022-12-20T01:19:16;97007.25;;;1.26;100.00
11085;BME280;5596;46.826;8.650;2022-12-20T01:21:44;96999.09;;;1.28;100.00
11085;BME280;5596;46.826;8.650;2022-12-20T01:24:13;97012.13;;;1.39;100.00
11085;BME280;5596;46.826;8.650;2022-12-20T01:26:43;97012.00;;;1.40;100.00
11085;BME280;5596;46.826;8.650;2022-12-20T01:29:10;97011.16;;;1.40;100.00
11085;BME280;5596;46.826;8.650;2022-12-20T01:31:39;97018.69;;;1.44;100.00
11085;BME280;5596;46.826;8.650;2022-12-20T01:34:06;97002.00;;;1.34;100.00
11085;BME280;5596;46.826;8.650;2022-12-20T01:36:35;96991.94;;;1.28;100.00
11085;BME280;5596;46.826;8.650;2022-12-20T01:39:06;96988.16;;;1.31;100.00
11085;BME280;5596;46.826;8.650;2022-12-20T01:41:35;96991.94;;;1.28;100.00
11085;BME280;5596;46.826;8.650;2022-12-20T01:44:04;97001.16;;;1.34;100.00
11085;BME280;5596;46.826;8.650;2022-12-20T01:46:33;96979.97;;;1.24;100.00
11085;BME280;5596;46.826;8.650;2022-12-20T01:49:05;96974.28;;;1.19;100.00
11085;BME280;5596;46.826;8.650;2022-12-20T01:51:39;96995.94;;;1.24;100.00
11085;BME280;5596;46.826;8.650;2022-12-20T01:54:11;96989.94;;;1.22;100.00
11085;BME280;5596;46.826;8.650;2022-12-20T01:56:44;96975.28;;;1.18;100.00
11085;BME280;5596;46.826;8.650;2022-12-20T01:59:15;96977.31;;;1.24;100.00
11085;BME280;5596;46.826;8.650;2022-12-20T02:01:43;96970.06;;;1.34;100.00
11085;BME280;5596;46.826;8.650;2022-12-20T02:04:10;96965.72;;;1.33;100.00
11085;BME280;5596;46.826;8.650;2022-12-20T02:06:38;96959.72;;;1.31;100.00
11085;BME280;5596;46.826;8.650;2022-12-20T02:09:05;96971.78;;;1.43;100.00
11085;BME280;5596;46.826;8.650;2022-12-20T02:11:48;96968.13;;;1.44;100.00
11085;BME280;5596;46.826;8.650;2022-12-20T02:14:35;96957.63;;;1.43;100.00
11085;BME280;5596;46.826;8.650;2022-12-20T02:17:13;96945.47;;;1.40;100.00
11085;BME280;5596;46.826;8.650;2022-12-20T02:20:18;96952.81;;;1.46;100.00
11085;BME280;5596;46.826;8.650;2022-12-20T02:23:05;96928.50;;;1.41;100.00
11085;BME280;5596;46.826;8.650;2022-12-20T02:25:52;96932.84;;;1.42;100.00
11085;BME280;5596;46.826;8.650;2022-12-20T02:28:40;96930.03;;;1.44;100.00
11085;BME280;5596;46.826;8.650;2022-12-20T02:31:20;96916.50;;;1.37;100.00
11085;BME280;5596;46.826;8.650;2022-12-20T02:33:51;96916.84;;;1.34;100.00
11085;BME280;5596;46.826;8.650;2022-12-20T02:36:20;96924.13;;;1.32;100.00
11085;BME280;5596;46.826;8.650;2022-12-20T02:38:51;96914.50;;;1.31;100.00
11085;BME280;5596;46.826;8.650;2022-12-20T02:41:20;96916.84;;;1.34;100.00
11085;BME280;5596;46.826;8.650;2022-12-20T02:43:53;96927.78;;;1.31;100.00
11085;BME280;5596;46.826;8.650;2022-12-20T02:46:40;96934.47;;;1.35;100.00
11085;BME280;5596;46.826;8.650;2022-12-20T02:49:09;96939.81;;;1.35;100.00
11085;BME280;5596;46.826;8.650;2022-12-20T02:51:40;96933.59;;;1.27;100.00
11085;BME280;5596;46.826;8.650;2022-12-20T02:54:09;96926.59;;;1.26;100.00
11085;BME280;5596;46.826;8.650;2022-12-20T02:56:38;96938.75;;;1.28;100.00
11085;BME280;5596;46.826;8.650;2022-12-20T02:59:11;96939.06;;;1.25;100.00
11085;BME280;5596;46.826;8.650;2022-12-20T03:01:46;96949.88;;;1.24;100.00
11085;BME280;5596;46.826;8.650;2022-12-20T03:04:16;96941.34;;;1.20;100.00
11085;BME280;5596;46.826;8.650;2022-12-20T03:06:55;96934.84;;;1.14;100.00
11085;BME280;5596;46.826;8.650;2022-12-20T03:09:23;96937.84;;;1.20;100.00
11085;BME280;5596;46.826;8.650;2022-12-20T03:11:51;96933.19;;;1.13;100.00
11085;BME280;5596;46.826;8.650;2022-12-20T03:14:18;96929.00;;;1.11;100.00
11085;BME280;5596;46.826;8.650;2022-12-20T03:16:49;96928.66;;;1.06;100.00
11085;BME280;5596;46.826;8.650;2022-12-20T03:19:16;96920.66;;;1.06;100.00
11085;BME280;5596;46.826;8.650;2022-12-20T03:21:44;96906.84;;;1.02;100.00
11085;BME280;5596;46.826;8.650;2022-12-20T03:24:12;96905.75;;;1.13;100.00
11085;BME280;5596;46.826;8.650;2022-12-20T03:26:40;96913.91;;;1.20;100.00
11085;BME280;5596;46.826;8.650;2022-12-20T03:29:09;96902.47;;;1.19;100.00
11085;BME280;5596;46.826;8.650;2022-12-20T03:31:36;96904.13;;;1.20;100.00
11085;BME280;5596;46.826;8.650;2022-12-20T03:34:05;96911.53;;;1.34;100.00
11085;BME280;5596;46.826;8.650;2022-12-20T03:36:33;96911.88;;;1.39;100.00
11085;BME280;5596;46.826;8.650;2022-12-20T03:39:03;96888.22;;;1.36;100.00
11085;BME280;5596;46.826;8.650;2022-12-20T03:41:35;96903.72;;;1.41;100.00
11085;BME280;5596;46.826;8.650;2022-12-20T03:44:04;96902.06;;;1.40;100.00
11085;BME280;5596;46.826;8.650;2022-12-20T03:46:32;96885.94;;;1.41;100.00
11085;BME280;5596;46.826;8.650;2022-12-20T03:48:59;96887.09;;;1.39;100.00
11085;BME280;5596;46.826;8.650;2022-12-20T03:51:29;96870.28;;;1.38;100.00
11085;BME280;5596;46.826;8.650;2022-12-20T03:53:56;96887.00;;;1.57;100.00
11085;BME280;5596;46.826;8.650;2022-12-20T03:56:36;96870.34;;;1.63;100.00
11085;BME280;5596;46.826;8.650;2022-12-20T03:59:03;96871.91;;;1.81;100.00
11085;BME280;5596;46.826;8.650;2022-12-20T04:01:30;96872.09;;;1.96;100.00
11085;BME280;5596;46.826;8.650;2022-12-20T04:04:01;96850.63;;;1.98;100.00
11085;BME280;5596;46.826;8.650;2022-12-20T04:06:30;96861.97;;;2.16;100.00
11085;BME280;5596;46.826;8.650;2022-12-20T04:08:57;96855.50;;;2.26;100.00
11085;BME280;5596;46.826;8.650;2022-12-20T04:11:29;96858.84;;;2.37;100.00
11085;BME280;5596;46.826;8.650;2022-12-20T04:14:08;96841.66;;;2.31;100.00
11085;BME280;5596;46.826;8.650;2022-12-20T04:16:36;96852.66;;;2.36;100.00
11085;BME280;5596;46.826;8.650;2022-12-20T04:19:05;96845.50;;;2.28;100.00
11085;BME280;5596;46.826;8.650;2022-12-20T04:21:38;96849.16;;;2.36;100.00
11085;BME280;5596;46.826;8.650;2022-12-20T04:24:06;96830.16;;;2.31;100.00
11085;BME280;5596;46.826;8.650;2022-12-20T04:26:43;96827.50;;;2.55;100.00
11085;BME280;5596;46.826;8.650;2022-12-20T04:29:11;96820.63;;;2.69;100.00
11085;BME280;5596;46.826;8.650;2022-12-20T04:31:39;96800.97;;;2.78;100.00
11085;BME280;5596;46.826;8.650;2022-12-20T04:34:07;96824.06;;;2.93;100.00
11085;BME280;5596;46.826;8.650;2022-12-20T04:36:34;96809.25;;;2.83;100.00
11085;BME280;5596;46.826;8.650;2022-12-20T04:39:06;96805.75;;;2.90;100.00
11085;BME280;5596;46.826;8.650;2022-12-20T04:41:43;96807.06;;;2.94;100.00
11085;BME280;5596;46.826;8.650;2022-12-20T04:44:12;96818.75;;;2.93;100.00
11085;BME280;5596;46.826;8.650;2022-12-20T04:46:39;96808.78;;;2.79;100.00
11085;BME280;5596;46.826;8.650;2022-12-20T04:49:11;96819.78;;;2.76;100.00
11085;BME280;5596;46.826;8.650;2022-12-20T04:51:42;96793.81;;;2.70;100.00
11085;BME280;5596;46.826;8.650;2022-12-20T04:54:12;96796.13;;;2.73;100.00
11085;BME280;5596;46.826;8.650;2022-12-20T04:56:47;96789.56;;;2.92;100.00
11085;BME280;5596;46.826;8.650;2022-12-20T04:59:19;96807.19;;;3.09;100.00
11085;BME280;5596;46.826;8.650;2022-12-20T05:01:49;96793.72;;;3.02;100.00
11085;BME280;5596;46.826;8.650;2022-12-20T05:04:31;96804.38;;;3.02;100.00
11085;BME280;5596;46.826;8.650;2022-12-20T05:06:58;96808.91;;;2.94;100.00
11085;BME280;5596;46.826;8.650;2022-12-20T05:09:28;96808.13;;;2.77;100.00
11085;BME280;5596;46.826;8.650;2022-12-20T05:11:55;96810.13;;;2.75;100.00
11085;BME280;5596;46.826;8.650;2022-12-20T05:14:22;96802.13;;;2.67;100.00
11085;BME280;5596;46.826;8.650;2022-12-20T05:16:50;96803.66;;;2.61;100.00
11085;BME280;5596;46.826;8.650;2022-12-20T05:19:17;96812.66;;;2.60;100.00
11085;BME280;5596;46.826;8.650;2022-12-20T05:21:44;96808.84;;;2.63;100.00
11085;BME280;5596;46.826;8.650;2022-12-20T05:24:30;96795.53;;;2.55;100.00
11085;BME280;5596;46.826;8.650;2022-12-20T05:27:24;96813.00;;;2.49;100.00
11085;BME280;5596;46.826;8.650;2022-12-20T05:29:52;96818.16;;;2.51;100.00
11085;BME280;5596;46.826;8.650;2022-12-20T05:32:20;96807.84;;;2.40;100.00
11085;BME280;5596;46.826;8.650;2022-12-20T05:34:48;96808.19;;;2.37;100.00
11085;BME280;5596;46.826;8.650;2022-12-20T05:37:16;96815.00;;;2.31;100.00
11085;BME280;5596;46.826;8.650;2022-12-20T05:39:45;96796.88;;;2.26;100.00
11085;BME280;5596;46.826;8.650;2022-12-20T05:42:18;96787.91;;;2.19;100.00
11085;BME280;5596;46.826;8.650;2022-12-20T05:44:48;96788.22;;;2.16;100.00
11085;BME280;5596;46.826;8.650;2022-12-20T05:47:16;96796.88;;;2.18;100.00
11085;BME280;5596;46.826;8.650;2022-12-20T05:49:43;96794.53;;;2.15;100.00
11085;BME280;5596;46.826;8.650;2022-12-20T05:52:12;96798.19;;;2.14;100.00
11085;BME280;5596;46.826;8.650;2022-12-20T05:54:40;96786.91;;;2.20;100.00
11085;BME280;5596;46.826;8.650;2022-12-20T05:57:12;96793.53;;;2.24;100.00
11085;BME280;5596;46.826;8.650;2022-12-20T05:59:41;96797.88;;;2.25;100.00
11085;BME280;5596;46.826;8.650;2022-12-20T06:02:14;96785.38;;;2.18;100.00
11085;BME280;5596;46.826;8.650;2022-12-20T06:04:43;96779.91;;;2.19;100.00
11085;BME280;5596;46.826;8.650;2022-12-20T06:07:16;96771.22;;;2.17;100.00
11085;BME280;5596;46.826;8.650;2022-12-20T06:09:47;96769.91;;;2.13;100.00
11085;BME280;5596;46.826;8.650;2022-12-20T06:12:18;96774.72;;;2.18;100.00
11085;BME280;5596;46.826;8.650;2022-12-20T06:14:46;96795.22;;;2.17;100.00
11085;BME280;5596;46.826;8.650;2022-12-20T06:17:13;96781.06;;;2.09;100.00
11085;BME280;5596;46.826;8.650;2022-12-20T06:19:42;96782.22;;;2.14;100.00
11085;BME280;5596;46.826;8.650;2022-12-20T06:22:11;96767.22;;;2.13;100.00
11085;BME280;5596;46.826;8.650;2022-12-20T06:24:41;96772.22;;;2.24;100.00
11085;BME280;5596;46.826;8.650;2022-12-20T06:27:09;96755.06;;;2.27;100.00
11085;BME280;5596;46.826;8.650;2022-12-20T06:29:38;96760.25;;;2.28;100.00
11085;BME280;5596;46.826;8.650;2022-12-20T06:32:10;96769.22;;;2.27;100.00
11085;BME280;5596;46.826;8.650;2022-12-20T06:34:37;96762.91;;;2.28;100.00
11085;BME280;5596;46.826;8.650;2022-12-20T06:37:05;96747.41;;;2.32;100.00
11085;BME280;5596;46.826;8.650;2022-12-20T06:39:33;96742.88;;;2.41;100.00
11085;BME280;5596;46.826;8.650;2022-12-20T06:42:02;96742.19;;;2.47;100.00
11085;BME280;5596;46.826;8.650;2022-12-20T06:44:29;96733.41;;;2.46;100.00
11085;BME280;5596;46.826;8.650;2022-12-20T06:46:59;96731.72;;;2.53;100.00
11085;BME280;5596;46.826;8.650;2022-12-20T06:49:26;96734.19;;;2.63;100.00
11085;BME280;5596;46.826;8.650;2022-12-20T06:51:53;96729.72;;;2.94;100.00
11085;BME280;5596;46.826;8.650;2022-12-20T06:54:27;96719.25;;;3.16;100.00
11085;BME280;5596;46.826;8.650;2022-12-20T06:56:54;96710.53;;;3.30;100.00
11085;BME280;5596;46.826;8.650;2022-12-20T06:59:21;96715.16;;;3.36;100.00
11085;BME280;5596;46.826;8.650;2022-12-20T07:01:48;96730.34;;;3.58;100.00
11085;BME280;5596;46.826;8.650;2022-12-20T07:04:17;96717.66;;;3.60;100.00
11085;BME280;5596;46.826;8.650;2022-12-20T07:06:44;96712.03;;;3.55;100.00
11085;BME280;5596;46.826;8.650;2022-12-20T07:09:11;96724.88;;;3.52;100.00
11085;BME280;5596;46.826;8.650;2022-12-20T07:11:38;96736.28;;;3.46;100.00
11085;BME280;5596;46.826;8.650;2022-12-20T07:14:07;96723.00;;;3.37;100.00
11085;BME280;5596;46.826;8.650;2022-12-20T07:16:36;96729.84;;;3.32;100.00
11085;BME280;5596;46.826;8.650;2022-12-20T07:19:03;96740.41;;;3.25;100.00
11085;BME280;5596;46.826;8.650;2022-12-20T07:21:32;96725.00;;;3.04;100.00
11085;BME280;5596;46.826;8.650;2022-12-20T07:24:00;96718.03;;;2.95;100.00
11085;BME280;5596;46.826;8.650;2022-12-20T07:26:27;96715.72;;;2.92;100.00
11085;BME280;5596;46.826;8.650;2022-12-20T07:28:54;96741.38;;;2.93;100.00
11085;BME280;5596;46.826;8.650;2022-12-20T07:31:21;96738.75;;;2.85;100.00
11085;BME280;5596;46.826;8.650;2022-12-20T07:33:48;96754.44;;;2.88;100.00
11085;BME280;5596;46.826;8.650;2022-12-20T07:36:15;96748.13;;;2.73;100.00
11085;BME280;5596;46.826;8.650;2022-12-20T07:38:44;96770.94;;;2.76;100.00
11085;BME280;5596;46.826;8.650;2022-12-20T07:41:13;96759.31;;;2.69;100.00
11085;BME280;5596;46.826;8.650;2022-12-20T07:43:41;96767.81;;;2.64;100.00
11085;BME280;5596;46.826;8.650;2022-12-20T07:46:12;96782.81;;;2.57;100.00
11085;BME280;5596;46.826;8.650;2022-12-20T07:48:39;96792.84;;;2.47;100.00
11085;BME280;5596;46.826;8.650;2022-12-20T07:51:09;96798.84;;;2.49;100.00
11085;BME280;5596;46.826;8.650;2022-12-20T07:53:40;96799.50;;;2.51;100.00
11085;BME280;5596;46.826;8.650;2022-12-20T07:56:11;96786.69;;;2.54;100.00
11085;BME280;5596;46.826;8.650;2022-12-20T07:58:41;96809.00;;;2.61;100.00
11085;BME280;5596;46.826;8.650;2022-12-20T08:01:09;96801.50;;;2.57;100.00
11085;BME280;5596;46.826;8.650;2022-12-20T08:03:40;96792.50;;;2.50;100.00
11085;BME280;5596;46.826;8.650;2022-12-20T08:06:09;96805.97;;;2.64;100.00
11085;BME280;5596;46.826;8.650;2022-12-20T08:08:41;96795.81;;;2.68;100.00
11085;BME280;5596;46.826;8.650;2022-12-20T08:11:12;96785.66;;;2.72;100.00
11085;BME280;5596;46.826;8.650;2022-12-20T08:13:40;96779.13;;;2.66;100.00
11085;BME280;5596;46.826;8.650;2022-12-20T08:16:07;96793.44;;;2.73;100.00
11085;BME280;5596;46.826;8.650;2022-12-20T08:18:34;96790.78;;;2.73;100.00
11085;BME280;5596;46.826;8.650;2022-12-20T08:21:02;96795.59;;;2.86;100.00
11085;BME280;5596;46.826;8.650;2022-12-20T08:23:28;96807.56;;;2.90;100.00
11085;BME280;5596;46.826;8.650;2022-12-20T08:25:55;96806.75;;;2.97;100.00
11085;BME280;5596;46.826;8.650;2022-12-20T08:28:27;96795.72;;;3.00;100.00
11085;BME280;5596;46.826;8.650;2022-12-20T08:30:59;96794.00;;;3.08;100.00
11085;BME280;5596;46.826;8.650;2022-12-20T08:33:27;96793.81;;;3.17;100.00
11085;BME280;5596;46.826;8.650;2022-12-20T08:35:58;96787.59;;;3.25;100.00
11085;BME280;5596;46.826;8.650;2022-12-20T08:38:26;96784.41;;;3.29;100.00
11085;BME280;5596;46.826;8.650;2022-12-20T08:40:53;96787.88;;;3.38;100.00
11085;BME280;5596;46.826;8.650;2022-12-20T08:43:20;96772.34;;;3.41;100.00
11085;BME280;5596;46.826;8.650;2022-12-20T08:45:53;96762.94;;;3.54;100.00
11085;BME280;5596;46.826;8.650;2022-12-20T08:48:21;96782.69;;;3.67;100.00
11085;BME280;5596;46.826;8.650;2022-12-20T08:50:53;96786.97;;;3.76;100.00
11085;BME280;5596;46.826;8.650;2022-12-20T08:53:20;96781.56;;;3.85;100.00
11085;BME280;5596;46.826;8.650;2022-12-20T08:55:47;96757.91;;;3.82;100.00
11085;BME280;5596;46.826;8.650;2022-12-20T08:58:14;96761.53;;;3.89;100.00
11085;BME280;5596;46.826;8.650;2022-12-20T09:00:41;96742.09;;;3.95;100.00
11085;BME280;5596;46.826;8.650;2022-12-20T09:03:10;96752.88;;;4.24;100.00
11085;BME280;5596;46.826;8.650;2022-12-20T09:05:43;96743.84;;;4.25;100.00
11085;BME280;5596;46.826;8.650;2022-12-20T09:08:11;96731.03;;;4.21;100.00
11085;BME280;5596;46.826;8.650;2022-12-20T09:10:38;96733.72;;;4.35;100.00
11085;BME280;5596;46.826;8.650;2022-12-20T09:13:05;96739.28;;;4.48;100.00
11085;BME280;5596;46.826;8.650;2022-12-20T09:15:33;96726.00;;;4.70;100.00
11085;BME280;5596;46.826;8.650;2022-12-20T09:18:00;96732.66;;;4.74;100.00
11085;BME280;5596;46.826;8.650;2022-12-20T09:20:29;96710.88;;;4.91;100.00
11085;BME280;5596;46.826;8.650;2022-12-20T09:22:57;96715.00;;;4.94;100.00
11085;BME280;5596;46.826;8.650;2022-12-20T09:25:24;96711.13;;;4.97;100.00
11085;BME280;5596;46.826;8.650;2022-12-20T09:27:52;96710.69;;;4.93;100.00
11085;BME280;5596;46.826;8.650;2022-12-20T09:30:19;96703.69;;;4.92;100.00
11085;BME280;5596;46.826;8.650;2022-12-20T09:32:47;96697.50;;;4.91;100.00
11085;BME280;5596;46.826;8.650;2022-12-20T09:35:14;96703.84;;;4.90;100.00
11085;BME280;5596;46.826;8.650;2022-12-20T09:37:42;96722.13;;;4.87;100.00
11085;BME280;5596;46.826;8.650;2022-12-20T09:40:15;96708.31;;;4.83;100.00
11085;BME280;5596;46.826;8.650;2022-12-20T09:42:45;96696.75;;;4.83;100.00
11085;BME280;5596;46.826;8.650;2022-12-20T09:45:19;96702.66;;;4.78;100.00
11085;BME280;5596;46.826;8.650;2022-12-20T09:47:50;96712.25;;;4.73;100.00
11085;BME280;5596;46.826;8.650;2022-12-20T09:50:20;96703.31;;;4.66;100.00
11085;BME280;5596;46.826;8.650;2022-12-20T09:53:01;96700.91;;;4.71;100.00
11085;BME280;5596;46.826;8.650;2022-12-20T09:55:37;96691.41;;;4.68;100.00
11085;BME280;5596;46.826;8.650;2022-12-20T09:58:21;96691.03;;;4.71;100.00
11085;BME280;5596;46.826;8.650;2022-12-20T10:00:51;96686.63;;;4.64;100.00
11085;BME280;5596;46.826;8.650;2022-12-20T10:03:20;96693.81;;;4.63;100.00
11085;BME280;5596;46.826;8.650;2022-12-20T10:05:51;96688.00;;;4.60;100.00
11085;BME280;5596;46.826;8.650;2022-12-20T10:08:40;96693.56;;;4.58;100.00
11085;BME280;5596;46.826;8.650;2022-12-20T10:11:14;96701.66;;;4.65;100.00
11085;BME280;5596;46.826;8.650;2022-12-20T10:13:55;96713.63;;;4.69;100.00
11085;BME280;5596;46.826;8.650;2022-12-20T10:16:36;96699.34;;;4.76;100.00
11085;BME280;5596;46.826;8.650;2022-12-20T10:19:25;96692.50;;;4.88;100.00
11085;BME280;5596;46.826;8.650;2022-12-20T10:21:59;96696.03;;;4.74;100.00
11085;BME280;5596;46.826;8.650;2022-12-20T10:24:33;96685.34;;;4.74;100.00
11085;BME280;5596;46.826;8.650;2022-12-20T10:27:09;96684.84;;;4.71;100.00
11085;BME280;5596;46.826;8.650;2022-12-20T10:29:37;96674.16;;;4.71;100.00
11085;BME280;5596;46.826;8.650;2022-12-20T10:32:11;96675.06;;;4.78;100.00
11085;BME280;5596;46.826;8.650;2022-12-20T10:34:43;96674.63;;;4.74;100.00
11085;BME280;5596;46.826;8.650;2022-12-20T10:37:12;96686.25;;;4.81;100.00
11085;BME280;5596;46.826;8.650;2022-12-20T10:39:43;96688.25;;;4.94;100.00
11085;BME280;5596;46.826;8.650;2022-12-20T10:42:33;96685.56;;;4.94;100.00
11085;BME280;5596;46.826;8.650;2022-12-20T10:45:03;96674.50;;;4.97;100.00
11085;BME280;5596;46.826;8.650;2022-12-20T10:47:37;96672.06;;;5.02;100.00
11085;BME280;5596;46.826;8.650;2022-12-20T10:50:15;96655.28;;;5.08;100.00
11085;BME280;5596;46.826;8.650;2022-12-20T10:52:43;96663.56;;;5.13;100.00
11085;BME280;5596;46.826;8.650;2022-12-20T10:55:35;96655.81;;;5.18;100.00
11085;BME280;5596;46.826;8.650;2022-12-20T10:58:04;96642.44;;;5.40;100.00
11085;BME280;5596;46.826;8.650;2022-12-20T11:00:32;96634.00;;;5.64;100.00
11085;BME280;5596;46.826;8.650;2022-12-20T11:03:10;96638.97;;;6.10;100.00
11085;BME280;5596;46.826;8.650;2022-12-20T11:05:38;96626.78;;;6.82;100.00
11085;BME280;5596;46.826;8.650;2022-12-20T11:08:13;96609.81;;;7.36;100.00
11085;BME280;5596;46.826;8.650;2022-12-20T11:10:42;96603.66;;;7.69;100.00
11085;BME280;5596;46.826;8.650;2022-12-20T11:13:20;96594.53;;;8.09;100.00
11085;BME280;5596;46.826;8.650;2022-12-20T11:15:48;96618.13;;;8.27;100.00
11085;BME280;5596;46.826;8.650;2022-12-20T11:18:22;96606.50;;;8.53;100.00
11085;BME280;5596;46.826;8.650;2022-12-20T11:20:56;96582.47;;;8.64;100.00
11085;BME280;5596;46.826;8.650;2022-12-20T11:23:34;96558.09;;;8.46;100.00
11085;BME280;5596;46.826;8.650;2022-12-20T11:26:15;96564.06;;;8.55;100.00
11085;BME280;5596;46.826;8.650;2022-12-20T11:29:01;96550.34;;;8.76;100.00
11085;BME280;5596;46.826;8.650;2022-12-20T11:31:39;96538.63;;;8.44;100.00
11085;BME280;5596;46.826;8.650;2022-12-20T11:34:17;96523.38;;;8.12;100.00
11085;BME280;5596;46.826;8.650;2022-12-20T11:37:05;96502.94;;;7.97;100.00
11085;BME280;5596;46.826;8.650;2022-12-20T11:39:42;96501.09;;;7.85;100.00
11085;BME280;5596;46.826;8.650;2022-12-20T11:42:24;96476.72;;;7.80;100.00
11085;BME280;5596;46.826;8.650;2022-12-20T11:45:03;96459.13;;;7.77;100.00
11085;BME280;5596;46.826;8.650;2022-12-20T11:50:46;96429.53;;;7.84;100.00
11085;BME280;5596;46.826;8.650;2022-12-20T11:53:19;96424.59;;;7.87;100.00
11085;BME280;5596;46.826;8.650;2022-12-20T11:55:52;96422.72;;;7.88;100.00
11085;BME280;5596;46.826;8.650;2022-12-20T11:58:26;96403.03;;;7.94;100.00
11085;BME280;5596;46.826;8.650;2022-12-20T12:01:02;96409.66;;;7.98;100.00
11085;BME280;5596;46.826;8.650;2022-12-20T12:03:33;96416.63;;;8.12;100.00
11085;BME280;5596;46.826;8.650;2022-12-20T12:06:04;96417.25;;;8.14;100.00
11085;BME280;5596;46.826;8.650;2022-12-20T12:08:40;96415.41;;;8.15;100.00
11085;BME280;5596;46.826;8.650;2022-12-20T12:11:14;96401.53;;;8.11;100.00
11085;BME280;5596;46.826;8.650;2022-12-20T12:13:46;96402.56;;;8.10;100.00
11085;BME280;5596;46.826;8.650;2022-12-20T12:16:17;96405.00;;;8.18;100.00
11085;BME280;5596;46.826;8.650;2022-12-20T12:18:47;96391.19;;;8.15;100.00
11085;BME280;5596;46.826;8.650;2022-12-20T12:21:21;96381.06;;;8.10;100.00
11085;BME280;5596;46.826;8.650;2022-12-20T12:23:57;96383.75;;;8.10;100.00
11085;BME280;5596;46.826;8.650;2022-12-20T12:26:28;96398.88;;;8.05;100.00
11085;BME280;5596;46.826;8.650;2022-12-20T12:29:00;96401.22;;;7.88;100.00
11085;BME280;5596;46.826;8.650;2022-12-20T12:31:31;96422.31;;;7.91;100.00
11085;BME280;5596;46.826;8.650;2022-12-20T12:34:21;96421.66;;;7.95;100.00
11085;BME280;5596;46.826;8.650;2022-12-20T12:37:15;96435.75;;;7.91;100.00
11085;BME280;5596;46.826;8.650;2022-12-20T12:40:07;96442.38;;;7.88;100.00
11085;BME280;5596;46.826;8.650;2022-12-20T12:45:39;96448.59;;;7.76;100.00
11085;BME280;5596;46.826;8.650;2022-12-20T12:48:14;96450.06;;;7.58;100.00
11085;BME280;5596;46.826;8.650;2022-12-20T12:50:46;96457.94;;;7.60;100.00
11085;BME280;5596;46.826;8.650;2022-12-20T12:53:16;96457.31;;;7.51;100.00
11085;BME280;5596;46.826;8.650;2022-12-20T12:55:45;96463.31;;;7.47;100.00
11085;BME280;5596;46.826;8.650;2022-12-20T12:58:32;96478.00;;;7.44;100.00
11085;BME280;5596;46.826;8.650;2022-12-20T13:01:03;96481.50;;;7.45;100.00
11085;BME280;5596;46.826;8.650;2022-12-20T13:06:42;96493.09;;;7.39;100.00
11085;BME280;5596;46.826;8.650;2022-12-20T13:09:18;96494.72;;;7.33;100.00
11085;BME280;5596;46.826;8.650;2022-12-20T13:11:47;96507.56;;;7.31;100.00
11085;BME280;5596;46.826;8.650;2022-12-20T13:14:48;96522.41;;;7.34;100.00
11085;BME280;5596;46.826;8.650;2022-12-20T13:17:45;96531.28;;;7.28;100.00
11085;BME280;5596;46.826;8.650;2022-12-20T13:20:19;96539.56;;;7.26;100.00
11085;BME280;5596;46.826;8.650;2022-12-20T13:23:12;96550.28;;;7.26;100.00
11085;BME280;5596;46.826;8.650;2022-12-20T13:25:43;96550.09;;;7.28;100.00
11085;BME280;5596;46.826;8.650;2022-12-20T13:28:44;96552.78;;;7.28;100.00
11085;BME280;5596;46.826;8.650;2022-12-20T13:31:38;96555.28;;;7.29;100.00
11085;BME280;5596;46.826;8.650;2022-12-20T13:34:38;96551.75;;;7.29;100.00
11085;BME280;5596;46.826;8.650;2022-12-20T13:37:25;96547.84;;;7.38;100.00
11085;BME280;5596;46.826;8.650;2022-12-20T13:39:54;96537.09;;;7.31;100.00
11085;BME280;5596;46.826;8.650;2022-12-20T13:42:31;96533.34;;;7.32;100.00